SKVP/VUP METAR and TAF weather

Enter ICAO airport designator
Station Type Date Time Source
SKVP METAR 2019/05/21 21:00 UTC NOAA

SKVP 212100Z 00000KT 9999 VCSH FEW020TCU SCT080 31/24 A2981 RETS RMK TCU VCSH/ NE METAR SKMR 212100Z 01005KT 9999 SCT018 32/25 A2974


Station Type Date Time Source
SKVP Decoded METAR 2019/05/21 21:00 UTC NOAA

Valledupar / Alfonso Lopez, Colombia (SKVP) 10-26N 073-15W
May 21, 2019 - 05:00 PM EDT / 2019.05.21 2100 UTC
Wind: Calm:0
Visibility: greater than 7 mile(s):0
Sky conditions: partly cloudy
Weather: showers in the vicinity; Towering cumulus clouds observed
Temperature: 87 F (31 C)
Heat index: 95.7 F (35.4 C):1
Dew Point: 75 F (24 C)
Relative Humidity: 66%
Pressure (altimeter): 29.81 in. Hg (1009 hPa)
ob: SKVP 212100Z 00000KT 9999 VCSH FEW020TCU SCT080 31/24 A2981 RETS RMK TCU VCSH/ NE METAR SKMR 212100Z 01005KT 9999 SCT018 32/25 A2974
cycle: 21

Station Type Date Time Source
SKVP TAF UTC NOAA

Error!

Example: see airport list